地図

経路データ

SID SEASON NUMBER BASIN SUBBASIN NAME ISO_TIME NATURE LAT LON WMO_WIND WMO_PRES WMO_AGENCY TRACK_TYPE DIST2LAND LANDFALL IFLAG USA_AGENCY USA_ATCF_ID USA_LAT USA_LON USA_RECORD USA_STATUS USA_WIND USA_PRES USA_SSHS USA_R34_NE USA_R34_SE USA_R34_SW USA_R34_NW USA_R50_NE USA_R50_SE USA_R50_SW USA_R50_NW USA_R64_NE USA_R64_SE USA_R64_SW USA_R64_NW USA_POCI USA_ROCI USA_RMW USA_EYE TOKYO_LAT TOKYO_LON TOKYO_GRADE TOKYO_WIND TOKYO_PRES TOKYO_R50_DIR TOKYO_R50_LONG TOKYO_R50_SHORT TOKYO_R30_DIR TOKYO_R30_LONG TOKYO_R30_SHORT TOKYO_LAND CMA_LAT CMA_LON CMA_CAT CMA_WIND CMA_PRES HKO_LAT HKO_LON HKO_CAT HKO_WIND HKO_PRES NEWDELHI_LAT NEWDELHI_LON NEWDELHI_GRADE NEWDELHI_WIND NEWDELHI_PRES NEWDELHI_CI NEWDELHI_DP NEWDELHI_POCI REUNION_LAT REUNION_LON REUNION_TYPE REUNION_WIND REUNION_PRES REUNION_TNUM REUNION_CI REUNION_RMW REUNION_R34_NE REUNION_R34_SE REUNION_R34_SW REUNION_R34_NW REUNION_R50_NE REUNION_R50_SE REUNION_R50_SW REUNION_R50_NW REUNION_R64_NE REUNION_R64_SE REUNION_R64_SW REUNION_R64_NW BOM_LAT BOM_LON BOM_TYPE BOM_WIND BOM_PRES BOM_TNUM BOM_CI BOM_RMW BOM_R34_NE BOM_R34_SE BOM_R34_SW BOM_R34_NW BOM_R50_NE BOM_R50_SE BOM_R50_SW BOM_R50_NW BOM_R64_NE BOM_R64_SE BOM_R64_SW BOM_R64_NW BOM_ROCI BOM_POCI BOM_EYE BOM_POS_METHOD BOM_PRES_METHOD NADI_LAT NADI_LON NADI_CAT NADI_WIND NADI_PRES WELLINGTON_LAT WELLINGTON_LON WELLINGTON_WIND WELLINGTON_PRES DS824_LAT DS824_LON DS824_STAGE DS824_WIND DS824_PRES TD9636_LAT TD9636_LON TD9636_STAGE TD9636_WIND TD9636_PRES TD9635_LAT TD9635_LON TD9635_WIND TD9635_PRES TD9635_ROCI NEUMANN_LAT NEUMANN_LON NEUMANN_CLASS NEUMANN_WIND NEUMANN_PRES MLC_LAT MLC_LON MLC_CLASS MLC_WIND MLC_PRES USA_GUST BOM_GUST BOM_GUST_PER REUNION_GUST REUNION_GUST_PER USA_SEAHGT USA_SEARAD_NE USA_SEARAD_SE USA_SEARAD_SW USA_SEARAD_NW STORM_SPEED STORM_DIR
1970003S16165 1970 2 SP MM ADA 1970-01-02 23:00:00 NR -15.8000 165.100 main 166 166 ______O___O___ -1 -15.8000 165.100 1002 -15.8000 165.100 1 10 5 248
1970003S16165 1970 2 SP MM ADA 1970-01-03 00:00:00 TS -15.8337 165.016 30 997 wellington main 177 177 O_____P_OOP_O_ jtwc_sh SH051970 -15.8000 165.000 10 -1 -15.8259 164.962 1002 -16.0000 165.000 30 997 -15.8000 165.000 TC 25 1002 -15.8259 164.962 1 10 -15.8000 165.300 TC 25 1002 7 257
1970003S16165 1970 2 SP MM ADA 1970-01-03 03:00:00 TS -15.9097 164.606 main 221 221 P_____P_PPP_P_ SH051970 -15.9128 164.530 12 -1 -15.9028 164.549 1002 -16.0286 164.650 30 997 -15.8773 164.586 TC 25 1002 -15.9028 164.549 1 11 -15.8376 164.902 TC 25 1002 8 259
1970003S16165 1970 2 SP MM ADA 1970-01-03 06:00:00 TS -15.9818 164.204 main 265 265 O_____P_PPP_O_ jtwc_sh SH051970 -16.0000 164.100 15 -1 -15.9783 164.144 1002 -16.0655 164.300 30 997 -15.9533 164.178 TC 25 1002 -15.9783 164.144 1 12 -15.9000 164.500 TC 25 1002 8 259
1970003S16165 1970 2 SP MM ADA 1970-01-03 09:00:00 TS -16.0501 163.828 main 309 309 P_____P_PPP_P_ SH051970 -16.0499 163.735 15 -1 -16.0520 163.752 1002 -16.1196 163.950 30 997 -16.0276 163.781 TC 25 1002 -16.0520 163.752 1 14 -16.0000 164.093 TC 25 1002 7 259
1970003S16165 1970 2 SP MM ADA 1970-01-03 11:00:00 TS -16.0966 163.585 main 330 330 P_____O_PPO_P_ SH051970 -16.0802 163.511 15 -1 -16.1000 163.500 1002 -16.1698 163.717 30 997 -16.0761 163.525 TC 25 1002 -16.1000 163.500 1 15 -16.0697 163.828 TC 25 1002 7 259
1970003S16165 1970 2 SP MM ADA 1970-01-03 12:00:00 TS -16.1210 163.465 30 997 wellington main 341 341 O_____P_OOP_O_ jtwc_sh SH051970 -16.1000 163.400 15 -1 -16.1236 163.378 1002 -16.2000 163.600 30 997 -16.1000 163.400 TC 25 1002 -16.1236 163.378 1 14 -16.1000 163.700 TC 25 1002 7 257
1970003S16165 1970 2 SP MM ADA 1970-01-03 15:00:00 TS -16.2029 163.111 main 385 385 P_____P_PPP_P_ SH051970 -16.1999 163.050 12 -1 -16.1942 163.023 1002 -16.3114 163.250 30 997 -16.1706 163.040 TC 25 1002 -16.1942 163.023 1 13 -16.1499 163.342 TC 25 1002 7 256
1970003S16165 1970 2 SP MM ADA 1970-01-03 18:00:00 TS -16.2882 162.764 main 418 418 O_____P_PPP_O_ jtwc_sh SH051970 -16.3000 162.700 10 -1 -16.2666 162.678 1002 -16.4423 162.900 30 997 -16.2420 162.692 TC 25 1002 -16.2666 162.678 1 12 -16.2000 163.000 TC 25 1002 7 256
1970003S16165 1970 2 SP MM ADA 1970-01-03 21:00:00 TS -16.3678 162.420 main 461 461 P_____P_PPP_P_ SH051970 -16.3499 162.357 10 -1 -16.3441 162.334 1002 -16.5770 162.550 30 997 -16.3175 162.349 TC 25 1002 -16.3441 162.334 1 10 -16.2924 162.658 TC 25 1002 7 256
1970003S16165 1970 2 SP MM ADA 1970-01-03 23:00:00 TS -16.4225 162.186 main 470 470 P_____O_PPO_P_ SH051970 -16.3802 162.122 10 -1 -16.4000 162.100 1002 -16.6613 162.317 30 997 -16.3715 162.117 TC 25 1002 -16.4000 162.100 1 10 -16.3640 162.422 TC 25 1002 7 256
1970003S16165 1970 2 SP MM ADA 1970-01-04 00:00:00 TS -16.4521 162.065 30 997 wellington main 464 464 O_____P_OOP_O_ jtwc_sh SH051970 -16.4000 162.000 10 -1 -16.4324 161.977 1002 -16.7000 162.200 30 997 -16.4000 162.000 TC 25 1002 -16.4324 161.977 1 10 -16.4000 162.300 TC 25 1002 7 255
1970003S16165 1970 2 SP MM ADA 1970-01-04 03:00:00 TS -16.5514 161.684 main 475 475 P_____P_PPP_P_ SH051970 -16.4925 161.600 10 -1 -16.5362 161.603 1002 -16.8013 161.854 30 997 -16.5008 161.628 TC 25 1002 -16.5362 161.603 1 11 -16.5000 161.900 TC 25 1002 8 255
1970003S16165 1970 2 SP MM ADA 1970-01-04 06:00:00 TS -16.6542 161.301 main 490 490 O_____P_PPP_O_ jtwc_sh SH051970 -16.6000 161.200 10 -1 -16.6425 161.224 1002 -16.8872 161.507 30 997 -16.6074 161.250 TC 25 1002 -16.6425 161.224 1 12 -16.6000 161.500 TC 25 1002 7 254
1970003S16165 1970 2 SP MM ADA 1970-01-04 09:00:00 TS -16.7530 160.938 main 508 508 P_____P_PPP_P_ SH051970 -16.7074 160.850 12 -1 -16.7421 160.847 1002 -16.9544 161.157 30 997 -16.7102 160.872 TC 25 1002 -16.7421 160.847 1 14 -16.7074 161.143 TC 25 1002 7 255
1970003S16165 1970 2 SP MM ADA 1970-01-04 11:00:00 TS -16.8109 160.699 main 522 522 P_____O_PPO_P_ SH051970 -16.7723 160.620 14 -1 -16.8000 160.600 1002 -16.9874 160.920 30 997 -16.7721 160.623 TC 25 1002 -16.8000 160.600 1 15 -16.7723 160.914 TC 25 1002 7 256
1970003S16165 1970 2 SP MM ADA 1970-01-04 12:00:00 TS -16.8359 160.579 30 997 wellington main 529 529 O_____P_OOP_O_ jtwc_sh SH051970 -16.8000 160.500 15 -1 -16.8258 160.477 1002 -17.0000 160.800 30 997 -16.8000 160.500 TC 25 1002 -16.8258 160.477 1 15 -16.8000 160.800 TC 25 1002 7 260
1970003S16165 1970 2 SP MM ADA 1970-01-04 15:00:00 TS -16.8933 160.203 main 552 552 P_____P_PPP_P_ SH051970 -16.8575 160.092 17 -1 -16.8932 160.115 1002 -17.0216 160.420 30 997 -16.8723 160.135 TC 25 1002 -16.8932 160.115 1 18 -16.8574 160.450 TC 25 1002 7 262
1970003S16165 1970 2 SP EA ADA 1970-01-04 18:00:00 TS -16.9348 159.833 main 583 583 O_____P_PPP_O_ jtwc_sh SH051970 -16.9000 159.700 20 -1 -16.9457 159.761 1002 -17.0225 160.035 30 997 -16.9298 159.777 TC 25 1002 -16.9457 159.761 1 20 -16.9000 160.100 TC 25 1002 7 263
1970003S16165 1970 2 SP EA ADA 1970-01-04 21:00:00 TS -16.9748 159.491 main 600 600 P_____P_PPP_P_ SH051970 -16.9574 159.385 22 -1 -16.9833 159.419 1002 -17.0122 159.657 30 997 -16.9724 159.432 TC 25 1002 -16.9833 159.419 1 23 -16.9575 159.743 TC 25 1002 6 264
1970003S16165 1970 2 SP EA ADA 1970-01-04 23:00:00 TS -16.9947 159.275 1002 bom main 617 617 P_____O_PPO_P_ SH051970 -16.9890 159.195 24 -1 -17.0000 159.200 1002 -17.0037 159.416 30 997 -16.9925 159.209 TC 25 1002 -17.0000 159.200 1 25 -16.9890 159.511 TC 25 1002 6 265
1970003S16165 1970 2 SP EA ADA 1970-01-05 00:00:00 TS -17.0028 159.170 main 626 626 O_____P_OOP_O_ jtwc_sh SH051970 -17.0000 159.100 25 -1 -17.0103 159.096 1002 -17.0000 159.300 30 997 -17.0000 159.100 TC 25 1002 -17.0091 159.093 1 24 -17.0000 159.400 TC 25 1002 6 267
1970003S16165 1970 2 SP EA ADA 1970-01-05 03:00:00 TS -17.0158 158.860 main 651 651 P_____P_PPP_P_ SH051970 -17.0075 158.800 22 -1 -17.0317 158.795 1002 -17.0039 158.958 30 997 -17.0263 158.790 TC 25 1002 -17.0264 158.784 1 23 -17.0074 159.092 TC 25 1002 6 269
1970003S16165 1970 2 SP EA ADA 1970-01-05 06:00:00 TS -17.0157 158.560 main 678 678 O_____P_PPP_O_ jtwc_sh SH051970 -17.0000 158.500 20 -1 -17.0367 158.503 1002 -17.0074 158.640 30 997 -17.0371 158.493 TC 25 1002 -17.0289 158.487 1 22 -17.0000 158.800 TC 25 1002 6 270
1970003S16165 1970 2 SP EA ADA 1970-01-05 09:00:00 TS -17.0150 158.266 main 704 704 P_____P_PPP_P_ SH051970 -17.0075 158.200 20 -1 -17.0221 158.206 1002 -17.0071 158.352 30 997 -17.0294 158.199 TC 25 1002 -17.0165 158.195 1 20 -17.0149 158.508 TC 25 1002 6 271
1970003S16165 1970 2 SP EA ADA 1970-01-05 11:00:00 TS -17.0055 158.069 1002 bom main 722 722 P_____O_PPO_P_ SH051970 -17.0057 158.000 20 -1 -17.0000 158.000 1002 -17.0033 158.180 30 997 -17.0124 158.001 TC 25 1002 -17.0000 158.000 1 20 -17.0114 158.306 TC 25 1002 6 274
1970003S16165 1970 2 SP EA ADA 1970-01-05 12:00:00 TS -16.9968 157.967 main 731 731 O_____P_OOP_O_ jtwc_sh SH051970 -17.0000 157.900 20 -1 -16.9852 157.878 1002 -17.0000 158.100 30 997 -17.0000 157.900 TC 25 1002 -16.9925 157.893 1 20 -17.0000 158.200 TC 25 1002 6 278
1970003S16165 1970 2 SP EA ADA 1970-01-05 15:00:00 TS -16.9485 157.652 main 765 765 P_____P_PPP_P_ SH051970 -16.9575 157.600 22 -1 -16.9241 157.495 1002 -16.9860 157.897 30 997 -16.9468 157.545 TC 25 1002 -16.9601 157.567 1 21 -16.9075 157.857 TC 25 1002 6 281
1970003S16165 1970 2 SP EA ADA 1970-01-05 18:00:00 TS -16.8851 157.341 main 801 801 O_____P_PPP_O_ jtwc_sh SH051970 -16.9000 157.300 25 -1 -16.8453 157.117 1002 -16.9646 157.728 30 997 -16.8728 157.190 TC 25 1002 -16.9126 157.252 1 22 -16.8000 157.500 TC 25 1002 6 282
1970003S16165 1970 2 SP EA ADA 1970-01-05 21:00:00 TS -16.8281 157.035 main 835 835 P_____P_PPP_P_ SH051970 -16.8575 156.978 25 -1 -16.7581 156.781 1002 -16.9360 157.569 30 997 -16.7874 156.864 TC 25 1002 -16.8501 156.966 1 24 -16.7501 157.113 TC 25 1002 6 282
1970003S16165 1970 2 SP EA ADA 1970-01-05 23:00:00 TS -16.7866 156.856 1003 bom main 844 844 P_____O_PPO_P_ SH051970 -16.8224 156.783 25 -1 -16.7000 156.600 1003 -16.9128 157.459 30 997 -16.7288 156.679 TC 25 1002 -16.8000 156.800 1 25 -16.7198 156.888 TC 25 1002 5 285
1970003S16165 1970 2 SP EA ADA 1970-01-06 00:00:00 TS -16.7644 156.780 main 848 842 O_____P_OOP_O_ jtwc_sh SH051970 -16.8000 156.700 25 -1 -16.6761 156.532 1003 -16.9000 157.400 30 997 -16.7000 156.600 TC 25 1003 -16.7745 156.726 1 25 -16.7000 156.800 TC 25 1003 4 292
1970003S16165 1970 2 SP EA ADA 1970-01-06 03:00:00 TS -16.6877 156.604 main 846 841 P_____P_PPP_P_ SH051970 -16.7074 156.520 27 -1 -16.6050 156.382 1003 -16.8776 157.173 30 997 -16.6288 156.431 TC 25 1003 -16.6877 156.536 1 26 -16.5999 156.663 TC 25 1003 3 299
1970003S16165 1970 2 SP EA ADA 1970-01-06 06:00:00 TS -16.6032 156.477 main 841 835 O_____P_PPP_O_ jtwc_sh SH051970 -16.6000 156.400 30 -1 -16.5326 156.293 1003 -16.8452 156.935 30 997 -16.5571 156.325 TC 25 1003 -16.5877 156.386 1 27 -16.5000 156.600 TC 25 1003 3 305
1970003S16165 1970 2 SP EA ADA 1970-01-06 09:00:00 TS -16.5243 156.364 main 835 835 P_____P_PPP_P_ SH051970 -16.5075 156.293 30 -1 -16.4556 156.235 1003 -16.7901 156.704 30 997 -16.4820 156.256 TC 25 1003 -16.4775 156.267 1 29 -16.4500 156.500 TC 25 1003 3 309
1970003S16165 1970 2 SP EA ADA 1970-01-06 11:00:00 TS -16.4658 156.297 1003 bom main 840 830 P_____O_PPO_P_ SH051970 -16.4390 156.231 30 -1 -16.4000 156.200 1003 -16.7347 156.564 30 997 -16.4283 156.219 TC 25 1003 -16.4000 156.200 1 30 -16.4198 156.433 TC 25 1003 3 314
1970003S16165 1970 2 SP EA ADA 1970-01-06 12:00:00 TS -16.4331 156.261 main 830 825 O_____P_OOP_O_ jtwc_sh SH051970 -16.4000 156.200 30 -1 -16.3712 156.168 1003 -16.7000 156.500 30 997 -16.4000 156.200 TC 25 1003 -16.3604 156.161 1 28 -16.4000 156.400 TC 25 1003 3 317
1970003S16165 1970 2 SP EA ADA 1970-01-06 15:00:00 TS -16.3125 156.149 main 830 821 P_____P_PPP_P_ SH051970 -16.2500 156.092 25 -1 -16.2800 156.076 1003 -16.5527 156.326 30 997 -16.3112 156.106 TC 23 1003 -16.2358 156.060 1 25 -16.3075 156.292 TC 25 1003 3 322
1970003S16165 1970 2 SP EA ADA 1970-01-06 18:00:00 TS -16.1822 156.054 main 821 816 O_____P_PPP_O_ jtwc_sh SH051970 -16.1000 156.000 20 -1 -16.1812 155.994 1003 -16.3724 156.182 30 997 -16.2150 156.020 TC 22 1003 -16.1069 155.981 1 21 -16.2000 156.200 TC 25 1003 3 328
1970003S16165 1970 2 SP EA ADA 1970-01-06 21:00:00 TS -16.0618 155.983 main 816 807 P_____P_PPP_P_ SH051970 -15.9925 155.935 17 -1 -16.0750 155.930 1003 -16.1809 156.073 30 997 -16.1112 155.949 TC 21 1003 -15.9802 155.925 1 17 -16.1000 156.135 TC 22 1003 3 334
1970003S16165 1970 2 SP EA ADA 1970-01-06 23:00:00 TS -15.9843 155.951 1004 bom main 807 807 P_____O_PPO_P_ SH051970 -15.9307 155.908 15 -1 -16.0000 155.900 1004 -16.0578 156.020 30 997 -16.0379 155.914 TC 20 1003 -15.9000 155.900 1 15 -16.0333 156.108 TC 20 1003 2 346
1970003S16165 1970 2 SP EA ADA 1970-01-07 00:00:00 TS -15.9464 155.940 main 803 793 O_____P_OOP_O_ jtwc_sh SH051970 -15.9000 155.900 15 -1 -15.9617 155.889 1004 -16.0000 156.000 30 997 -16.0000 155.900 TC 20 1004 -15.8633 155.889 1 15 -16.0000 156.100 TC 20 1004 2 0
1970003S16165 1970 2 SP EA ADA 1970-01-07 03:00:00 TS -15.8357 155.923 main 793 784 P_____P_PPP_P_ SH051970 -15.8000 155.893 17 -1 -15.8412 155.871 1004 -15.8606 155.964 30 997 -15.8822 155.874 TC 20 1004 -15.7587 155.871 1 16 -15.9075 156.093 TC 20 1004 2 354
1970003S16165 1970 2 SP EA ADA 1970-01-07 06:00:00 TS -15.7239 155.925 main 784 775 O_____P_PPP_O_ jtwc_sh SH051970 -15.7000 155.900 20 -1 -15.7149 155.872 1004 -15.7350 155.963 30 997 -15.7575 155.870 TC 20 1004 -15.6600 155.872 1 17 -15.8000 156.100 TC 20 1004 2 7
1970003S16165 1970 2 SP EA ADA 1970-01-07 09:00:00 TS -15.6066 155.931 main 775 765 P_____P_PPP_P_ SH051970 -15.6000 155.892 20 -1 -15.5859 155.886 1004 -15.6169 155.980 30 997 -15.6291 155.881 TC 20 1004 -15.5640 155.886 1 19 -15.6500 156.100 TC 20 1004 2 8
1970003S16165 1970 2 SP EA ADA 1970-01-07 11:00:00 TS -15.5280 155.939 1004 bom main 765 765 P_____O_PPO_P_ SH051970 -15.5333 155.894 20 -1 -15.5000 155.900 1004 -15.5392 155.994 30 997 -15.5429 155.893 TC 20 1004 -15.5000 155.900 1 20 -15.5469 156.100 TC 20 1004 2 6
1970003S16165 1970 2 SP EA ADA 1970-01-07 12:00:00 TS -15.4886 155.944 main 765 750 O_____P_OOP_O_ jtwc_sh SH051970 -15.5000 155.900 20 -1 -15.4546 155.905 1004 -15.5000 156.000 30 997 -15.5000 155.900 TC 20 1004 -15.4654 155.905 1 20 -15.5000 156.100 TC 20 1004 2 0
1970003S16165 1970 2 SP EA ADA 1970-01-07 15:00:00 TS -15.3737 155.965 main 750 741 P_____P_PPP_P_ SH051970 -15.4000 155.950 20 -1 -15.3170 155.925 1004 -15.3709 155.992 30 997 -15.3669 155.918 TC 20 1004 -15.3612 155.925 1 20 -15.4000 156.092 TC 20 1004 2 8
1970003S16165 1970 2 SP EA ADA 1970-01-07 18:00:00 TS -15.2601 155.990 main 741 722 O_____P_PPP_O_ jtwc_sh SH051970 -15.3000 156.000 20 -1 -15.1844 155.952 1004 -15.2425 155.985 30 997 -15.2350 155.943 TC 20 1004 -15.2587 155.952 1 20 -15.3000 156.100 TC 20 1004 2 9
1970003S16165 1970 2 SP EA ADA 1970-01-07 21:00:00 TS -15.1426 156.010 main 722 722 P_____P_PPP_P_ SH051970 -15.2000 156.000 20 -1 -15.0662 155.981 1004 -15.1178 155.986 30 997 -15.1106 155.971 TC 20 1004 -15.1610 155.981 1 20 -15.1425 156.150 TC 20 1004 2 9
1970003S16165 1970 2 SP EA ADA 1970-01-07 23:00:00 TS -15.0687 156.023 1004 bom main 722 713 P_____O_PPO_P_ SH051970 -15.1333 155.997 20 -1 -15.0000 156.000 1004 -15.0383 155.993 30 997 -15.0350 155.990 TC 20 1004 -15.1000 156.000 1 20 -15.0412 156.186 TC 20 1004 2 0
1970003S16165 1970 2 SP EA ADA 1970-01-08 00:00:00 TS -15.0357 156.030 main 713 707 O_____P_OOP_O_ jtwc_sh SH051970 -15.1000 156.000 20 -1 -14.9782 156.006 1004 -15.0000 156.000 30 997 -15.0000 156.000 TC 20 1004 -15.0716 156.007 1 19 -15.0000 156.200 TC 20 1004 2 20
1970003S16165 1970 2 SP EA ADA 1970-01-08 03:00:00 TS -14.9513 156.056 main 707 698 P_____P_PPP_P_ SH051970 -14.9925 156.050 17 -1 -14.9313 156.022 1004 -14.8969 156.027 30 997 -14.9187 156.017 TC 20 1004 -14.9921 156.028 1 18 -14.9350 156.200 TC 20 1004 2 18
1970003S16165 1970 2 SP EA ADA 1970-01-08 06:00:00 TS -14.8805 156.085 main 698 689 O_____P_PPP_O_ jtwc_sh SH051970 -14.9000 156.100 15 -1 -14.8953 156.042 1004 -14.8000 156.070 30 997 -14.8500 156.035 TC 20 1004 -14.9184 156.050 1 17 -14.9000 156.200 TC 20 1004 1 24
1970003S16165 1970 2 SP EA ADA 1970-01-08 09:00:00 TS -14.8207 156.111 main 689 689 P_____P_PPP_P_ SH051970 -14.8500 156.100 15 -1 -14.8483 156.072 1004 -14.7031 156.127 30 997 -14.7812 156.061 TC 20 1004 -14.8474 156.078 1 15 -14.8650 156.242 TC 20 1004 1 21
1970003S16165 1970 2 SP EA ADA 1970-01-08 11:00:00 TS -14.7760 156.133 1004 bom main 689 689 P_____O_PPO_P_ SH051970 -14.8198 156.097 15 -1 -14.8000 156.100 1004 -14.6354 156.174 30 997 -14.7292 156.085 TC 20 1004 -14.8000 156.100 1 15 -14.8281 156.281 TC 20 1004 2 24
1970003S16165 1970 2 SP EA ADA 1970-01-08 12:00:00 TS -14.7483 156.147 main 680 664 O_____P_OOP_O_ jtwc_sh SH051970 -14.8000 156.100 15 -1 -14.7597 156.118 1004 -14.6000 156.200 30 997 -14.7000 156.100 TC 20 1004 -14.7787 156.111 1 15 -14.8000 156.300 TC 20 1004 2 28
1970003S16165 1970 2 SP EA ADA 1970-01-08 15:00:00 TS -14.6360 156.201 main 664 649 P_____P_PPP_P_ SH051970 -14.7000 156.143 15 -1 -14.6153 156.184 1004 -14.4700 156.290 30 997 -14.5853 156.157 TC 20 1004 -14.7163 156.148 1 15 -14.6650 156.342 TC 20 1004 3 26
1970003S16165 1970 2 SP EA ADA 1970-01-08 18:00:00 TS -14.5134 156.268 main 649 640 O_____P_PPP_O_ jtwc_sh SH051970 -14.6000 156.200 15 -1 -14.4526 156.262 1004 -14.3350 156.393 30 997 -14.4575 156.228 TC 20 1004 -14.6489 156.194 1 15 -14.5000 156.400 TC 20 1004 3 31
1970003S16165 1970 2 SP EA ADA 1970-01-08 21:00:00 TS -14.4073 156.342 main 640 625 P_____P_PPP_P_ SH051970 -14.5575 156.242 15 -1 -14.2934 156.345 1004 -14.2075 156.499 30 997 -14.3259 156.310 TC 20 1004 -14.5671 156.253 1 15 -14.3425 156.500 TC 20 1004 3 36
1970003S16165 1970 2 SP EA ADA 1970-01-08 23:00:00 TS -14.3384 156.395 1004 bom main 625 625 P_____O_PPO_P_ SH051970 -14.5255 156.278 15 -1 -14.2000 156.400 1004 -14.1328 156.568 30 997 -14.2408 156.369 TC 20 1004 -14.5000 156.300 1 15 -14.2443 156.570 TC 20 1004 3 39
1970003S16165 1970 2 SP EA ADA 1970-01-09 00:00:00 TS -14.3051 156.420 main 625 609 O_____P_OOP_O_ jtwc_sh SH051970 -14.5000 156.300 15 -1 -14.1723 156.416 1004 -14.1000 156.600 30 997 -14.2000 156.400 TC 20 1004 -14.4637 156.320 1 15 -14.2000 156.600 TC 20 1004 2 34
1970003S16165 1970 2 SP EA ADA 1970-01-09 03:00:00 TS -14.2075 156.485 main 609 594 P_____P_PPP_P_ SH051970 -14.3725 156.385 15 -1 -14.1087 156.462 1004 -14.0608 156.653 30 997 -14.1130 156.468 TC 20 1004 -14.3399 156.390 1 15 -14.0850 156.650 TC 20 1004 2 35
1970003S16165 1970 2 SP EA ADA 1970-01-09 06:00:00 TS -14.1019 156.564 main 594 578 O_____P_PPP_O_ jtwc_sh SH051970 -14.2000 156.500 15 -1 -14.0528 156.519 1004 -14.0373 156.705 30 997 -14.0298 156.547 TC 20 1004 -14.1936 156.480 1 15 -14.0000 156.700 TC 20 1004 3 39
1970003S16165 1970 2 SP EA ADA 1970-01-09 09:00:00 TS -13.9879 156.669 main 578 563 P_____P_PPP_P_ SH051970 -14.0075 156.635 15 -1 -13.9763 156.610 1004 -13.9951 156.778 30 997 -13.9317 156.653 TC 20 1004 -14.0249 156.599 1 15 -13.9725 156.770 TC 20 1004 3 42
1970003S16165 1970 2 SP EA ADA 1970-01-09 11:00:00 TS -13.8948 156.761 1004 bom main 563 554 P_____O_PPO_P_ SH051970 -13.8693 156.742 15 -1 -13.9000 156.700 1004 -13.9397 156.853 30 997 -13.8488 156.745 TC 20 1004 -13.9000 156.700 1 15 -13.9369 156.847 TC 20 1004 4 44
1970003S16165 1970 2 SP EA ADA 1970-01-09 12:00:00 TS -13.8390 156.817 main 554 523 O_____P_OOP_O_ jtwc_sh SH051970 -13.8000 156.800 15 -1 -13.8415 156.761 1004 -13.9000 156.900 30 997 -13.8000 156.800 TC 20 1004 -13.8314 156.757 1 15 -13.9000 156.900 TC 20 1004 5 44
1970003S16165 1970 2 SP EA ADA 1970-01-09 15:00:00 TS -13.6321 157.021 main 523 492 P_____P_PPP_P_ SH051970 -13.6075 156.985 17 -1 -13.6313 156.984 1004 -13.7035 157.096 30 997 -13.5948 157.011 TC 20 1004 -13.6074 156.955 1 16 -13.6725 157.128 TC 20 1004 6 44
1970003S16165 1970 2 SP EA ADA 1970-01-09 18:00:00 TS -13.3960 157.262 main 486 455 O_____P_PPP_O_ jtwc_sh SH051970 -13.4000 157.200 20 -1 -13.3910 157.245 1004 -13.4526 157.340 30 997 -13.3577 157.263 TC 20 1004 -13.3710 157.184 1 17 -13.4000 157.400 TC 20 1004 7 45
1970003S16165 1970 2 SP EA ADA 1970-01-09 21:00:00 TS -13.1502 157.520 main 455 425 P_____P_PPP_P_ SH051970 -13.1425 157.443 20 -1 -13.1487 157.521 1004 -13.1753 157.615 30 997 -13.1167 157.533 TC 20 1004 -13.1407 157.431 1 19 -13.1850 157.657 TC 20 1004 7 47
1970003S16165 1970 2 SP EA ADA 1970-01-09 23:00:00 TS -12.9950 157.695 1004 bom main 425 410 P_____O_PPO_P_ SH051970 -12.9745 157.614 20 -1 -13.0000 157.700 1004 -12.9898 157.805 30 997 -12.9678 157.713 TC 20 1004 -13.0000 157.600 1 20 -13.0583 157.822 TC 20 1004 7 48
1970003S16165 1970 2 SP EA ADA 1970-01-10 00:00:00 TS -12.9250 157.779 main 410 389 O_____P_OOP_O_ jtwc_sh SH051970 -12.9000 157.700 20 -1 -12.9374 157.776 1004 -12.9000 157.900 30 997 -12.9000 157.800 TC 20 1004 -12.9375 157.679 1 20 -13.0000 157.900 TC 20 1004 6 51
1970003S16165 1970 2 SP EA ADA 1970-01-10 03:00:00 TS -12.7471 158.015 main 379 358 P_____P_PPP_P_ SH051970 -12.7275 157.950 20 -1 -12.7653 157.997 1004 -12.6596 158.164 30 997 -12.7421 158.024 TC 20 1004 -12.7654 157.920 1 20 -12.8424 158.100 TC 20 1004 6 54
1970003S16165 1970 2 SP EA ADA 1970-01-10 06:00:00 TS -12.5954 158.252 main 353 334 O_____P_PPP_O_ jtwc_sh SH051970 -12.6000 158.200 20 -1 -12.6140 158.215 1004 -12.4274 158.435 30 997 -12.6123 158.242 TC 20 1004 -12.6141 158.169 1 20 -12.7000 158.300 TC 20 1004 6 58
1970003S16165 1970 2 SP EA ADA 1970-01-10 09:00:00 TS -12.4567 158.498 main 334 314 P_____P_PPP_P_ SH051970 -12.4925 158.450 20 -1 -12.4806 158.441 1004 -12.2065 158.714 30 997 -12.5014 158.465 TC 20 1004 -12.4807 158.425 1 20 -12.5425 158.543 TC 20 1004 6 61
1970003S16165 1970 2 SP EA ADA 1970-01-10 11:00:00 TS -12.3723 158.667 1004 bom main 314 304 P_____O_PPO_P_ SH051970 -12.4307 158.617 20 -1 -12.4000 158.600 1004 -12.0670 158.904 30 997 -12.4333 158.619 TC 20 1004 -12.4000 158.600 1 20 -12.4443 158.714 TC 20 1004 6 63
1970003S16165 1970 2 SP EA ADA 1970-01-10 12:00:00 TS -12.3314 158.754 main 300 282 O_____P_OOP_O_ jtwc_sh SH051970 -12.4000 158.700 20 -1 -12.3600 158.686 1004 -12.0000 159.000 30 997 -12.4000 158.700 TC 20 1004 -12.3600 158.690 1 20 -12.4000 158.800 TC 20 1004 6 65
1970003S16165 1970 2 SP EA ADA 1970-01-10 15:00:00 TS -12.2116 159.016 main 282 263 P_____P_PPP_P_ SH051970 -12.3000 158.942 20 -1 -12.2509 158.956 1004 -11.7944 159.297 30 997 -12.2928 158.965 TC 20 1004 -12.2508 158.964 1 20 -12.2925 159.042 TC 20 1004 6 66
1970003S16165 1970 2 SP EA ADA 1970-01-10 18:00:00 TS -12.1006 159.289 main 263 247 O_____P_PPP_O_ jtwc_sh SH051970 -12.2000 159.200 20 -1 -12.1534 159.236 1004 -11.6050 159.600 30 997 -12.1925 159.242 TC 20 1004 -12.1534 159.243 1 20 -12.2000 159.300 TC 20 1004 6 68
1970003S16165 1970 2 SP EA ADA 1970-01-10 21:00:00 TS -11.9938 159.581 main 247 235 P_____P_PPP_P_ SH051970 -12.1000 159.500 20 -1 -12.0614 159.517 1004 -11.4381 159.903 30 997 -12.0959 159.524 TC 20 1004 -12.0614 159.520 1 20 -12.1000 159.600 TC 20 1004 6 70
1970003S16165 1970 2 SP EA ADA 1970-01-10 23:00:00 TS -11.9249 159.774 1004 bom main 235 227 P_____O_PPO_P_ SH051970 -12.0333 159.703 20 -1 -12.0000 159.700 1004 -11.3425 160.102 30 997 -12.0321 159.709 TC 20 1004 -12.0000 159.700 1 20 -12.0333 159.803 TC 20 1004 6 70
1970003S16165 1970 2 SP EA ADA 1970-01-11 00:00:00 TS -11.8898 159.867 main 227 203 O_____P_OOP_O_ jtwc_sh SH051970 -12.0000 159.800 20 -1 -11.9642 159.785 1004 -11.3000 160.200 30 997 -12.0000 159.800 TC 20 1004 -11.9642 159.785 1 20 -12.0000 159.900 TC 20 1004 6 68
1970003S16165 1970 2 SP MM ADA 1970-01-11 03:00:00 TS -11.7838 160.127 main 203 172 P_____P_PPP_P_ SH051970 -11.9000 160.057 22 -1 -11.8557 160.036 1004 -11.1840 160.490 30 997 -11.8918 160.053 TC 20 1004 -11.8557 160.036 1 23 -11.9000 160.157 TC 20 1004 5 68
1970003S16165 1970 2 SP MM ADA 1970-01-11 06:00:00 TS -11.6833 160.377 main 172 149 O_____P_PPP_O_ jtwc_sh SH051970 -11.8000 160.300 25 -1 -11.7506 160.282 1004 -11.0974 160.772 30 997 -11.7848 160.300 TC 20 1004 -11.7506 160.282 1 25 -11.8000 160.400 TC 20 1004 5 68
1970003S16165 1970 2 SP MM ADA 1970-01-11 09:00:00 TS -11.5893 160.629 main 149 126 P_____P_PPP_P_ SH051970 -11.7000 160.550 27 -1 -11.6552 160.530 1004 -11.0371 161.043 30 997 -11.6855 160.547 TC 20 1004 -11.6552 160.530 1 28 -11.6925 160.650 TC 20 1004 5 70
1970003S16165 1970 2 SP MM ADA 1970-01-11 11:00:00 TS -11.5330 160.797 main 126 120 P_____O_PPO_P_ SH051970 -11.6333 160.717 29 -1 -11.6000 160.700 1004 -11.0100 161.216 30 997 -11.6266 160.715 TC 20 1004 -11.6000 160.700 1 30 -11.6276 160.817 TC 20 1004 5 71
1970003S16165 1970 2 SP MM ADA 1970-01-11 12:00:00 TS -11.5058 160.882 30 997 wellington main 120 99 O_____P_OOP_O_ jtwc_sh SH051970 -11.6000 160.800 30 -1 -11.5705 160.788 1004 -11.0000 161.300 30 997 -11.6000 160.800 TC 20 1004 -11.5705 160.788 1 28 -11.6000 160.900 TC 20 1004 5 72
1970003S16165 1970 2 SP MM ADA 1970-01-11 15:00:00 TS -11.4243 161.138 main 99 80 P_____P_PPP_P_ SH051970 -11.4850 161.043 25 -1 -11.4903 161.059 1004 -10.9662 161.552 30 997 -11.5112 161.068 TC 20 1004 -11.4903 161.059 1 23 -11.5425 161.142 TC 20 1004 5 74
1970003S16165 1970 2 SP MM ADA 1970-01-11 18:00:00 TS -11.3650 161.400 main 80 57 O_____P_PPP_O_ jtwc_sh SH051970 -11.4000 161.300 20 -1 -11.4302 161.335 1004 -10.9549 161.787 30 997 -11.4399 161.343 TC 20 1004 -11.4302 161.335 1 18 -11.5000 161.400 TC 20 1004 5 81
1970003S16165 1970 2 SP MM ADA 1970-01-11 21:00:00 TS -11.3363 161.679 main 57 56 P_____P_PPP_P_ SH051970 -11.3775 161.600 15 -1 -11.3995 161.614 1004 -10.9662 162.005 30 997 -11.3987 161.621 TC 20 1004 -11.3995 161.614 1 13 -11.4350 161.700 TC 20 1004 5 87
1970003S16165 1970 2 SP MM ADA 1970-01-11 23:00:00 TS -11.3377 161.865 main 56 56 P_____O_PPO_P_ SH051970 -11.3890 161.803 11 -1 -11.4000 161.800 1004 -10.9862 162.138 30 997 -11.3941 161.807 TC 20 1004 -11.4000 161.800 1 10 -11.4053 161.903 TC 20 1004 5 92
1970003S16165 1970 2 SP MM ADA 1970-01-12 00:00:00 TS -11.3439 161.957 30 997 wellington main 56 56 O_____P_OOP_O_ jtwc_sh SH051970 -11.4000 161.900 10 -1 -11.4038 161.897 1004 -11.0000 162.200 30 997 -11.4000 161.900 TC 20 1004 -11.4033 161.899 1 10 -11.4000 162.000 TC 20 1004 5 97
1970003S16165 1970 2 SP MM ADA 1970-01-12 03:00:00 TS -11.3815 162.218 main 67 67 P_____P_PPP_P_ SH051970 -11.4349 162.150 12 -1 -11.4408 162.189 1004 -11.0453 162.388 30 997 -11.4481 162.203 TC 20 1004 -11.4388 162.199 1 13 -11.4274 162.250 TC 20 1004 5 102
1970003S16165 1970 2 SP MM ADA 1970-01-12 06:00:00 TS -11.4535 162.474 main 81 81 O_____P_PPP_O_ jtwc_sh SH051970 -11.5000 162.400 15 -1 -11.5130 162.474 1004 -11.1125 162.552 30 997 -11.5387 162.501 TC 20 1004 -11.5102 162.489 1 15 -11.5000 162.500 TC 20 1004 5 108
1970003S16165 1970 2 SP MM ADA 1970-01-12 09:00:00 TS -11.5470 162.742 main 89 89 P_____P_PPP_P_ SH051970 -11.5775 162.715 17 -1 -11.6161 162.740 1004 -11.1984 162.691 30 997 -11.6600 162.774 TC 20 1004 -11.6141 162.751 1 18 -11.5850 162.807 TC 20 1004 5 112
1970003S16165 1970 2 SP MM ADA 1970-01-12 11:00:00 TS -11.6257 162.905 main 110 110 P_____O_PPO_P_ SH051970 -11.6526 162.915 19 -1 -11.7000 162.900 1004 -11.2646 162.767 30 997 -11.7520 162.931 TC 20 1004 -11.7000 162.900 1 20 -11.6583 163.009 TC 20 1004 5 118
1970003S16165 1970 2 SP MM ADA 1970-01-12 12:00:00 TS -11.6687 162.979 30 997 wellington main 126 126 O_____P_OOP_O_ jtwc_sh SH051970 -11.7000 163.000 20 -1 -11.7413 162.982 1004 -11.3000 162.800 30 997 -11.8000 163.000 TC 20 1004 -11.7400 162.972 1 19 -11.7000 163.100 TC 20 1004 5 127
1970003S16165 1970 2 SP MM ADA 1970-01-12 15:00:00 TS -11.8129 163.162 main 148 148 P_____P_PPP_P_ SH051970 -11.8850 163.188 17 -1 -11.8863 163.197 1004 -11.3822 162.887 30 997 -11.9369 163.179 TC 20 1004 -11.8799 163.157 1 18 -11.8350 163.337 TC 20 1004 4 134
1970003S16165 1970 2 SP MM ADA 1970-01-12 17:00:00 TS -11.9252 163.249 main 157 157 P_____O_PPP_P_ SH051970 -12.0281 163.269 15 -1 -12.0000 163.300 1004 -11.4460 162.928 30 997 -12.0423 163.266 TC 20 1004 -11.9899 163.255 1 17 -11.9417 163.456 TC 20 1004 4 145
1970003S16165 1970 2 SP MM ADA 1970-01-12 18:00:00 TS -11.9844 163.283 main 173 173 O_____P_POP_O_ jtwc_sh SH051970 -12.1000 163.300 15 -1 -12.0581 163.339 1004 -11.4825 162.945 30 997 -12.1000 163.300 TC 20 1004 -12.0499 163.295 1 17 -12.0000 163.500 TC 20 1004 4 156
1970003S16165 1970 2 SP MM ADA 1970-01-12 21:00:00 TS -12.1655 163.356 main 197 197 P_____P_PPP_P_ SH051970 -12.2850 163.380 15 -1 -12.2528 163.398 1004 -11.6165 162.981 30 997 -12.2845 163.381 TC 20 1004 -12.2499 163.378 1 15 -12.1850 163.595 TC 20 1004 4 165
1970003S16165 1970 2 SP MM ADA 1970-01-12 23:00:00 TS -12.3037 163.372 main 206 206 P_____O_PPO_P_ SH051970 -12.4219 163.400 15 -1 -12.4000 163.400 1004 -11.7324 162.995 30 997 -12.4246 163.401 TC 20 1004 -12.4000 163.400 1 15 -12.3250 163.608 TC 20 1004 4 0
1970003S16165 1970 2 SP MM ADA 1970-01-13 00:00:00 TS -12.3804 163.373 30 997 wellington main 215 215 O_____P_OOP_O_ jtwc_sh SH051970 -12.5000 163.400 15 -1 -12.4807 163.402 1004 -11.8000 163.000 30 997 -12.5000 163.400 TC 20 1004 -12.4819 163.407 1 15 -12.4000 163.600 TC 20 1004 5 184
1970003S16165 1970 2 SP MM ADA 1970-01-13 03:00:00 TS -12.6476 163.349 main 229 229 P_____P_PPP_P_ SH051970 -12.7925 163.373 15 -1 -12.7484 163.373 1004 -12.0577 163.055 30 997 -12.7558 163.369 TC 20 1004 -12.7513 163.385 1 15 -12.6350 163.515 TC 20 1004 6 189
1970003S16165 1970 2 SP MM ADA 1970-01-13 06:00:00 TS -12.9397 163.283 main 259 259 O_____P_PPP_O_ jtwc_sh SH051970 -13.1000 163.300 15 -1 -13.0366 163.300 1004 -12.3624 163.090 30 997 -13.0398 163.282 TC 20 1004 -13.0390 163.310 1 15 -12.9000 163.400 TC 20 1004 6 194
1970003S16165 1970 2 SP MM ADA 1970-01-13 09:00:00 TS -13.2282 163.204 main 286 286 P_____P_PPP_P_ SH051970 -13.3650 163.222 15 -1 -13.3223 163.190 1004 -12.6858 163.080 30 997 -13.3288 163.154 TC 20 1004 -13.3233 163.194 1 15 -13.2075 163.365 TC 20 1004 6 197
1970003S16165 1970 2 SP MM ADA 1970-01-13 11:00:00 TS -13.4100 163.131 main 303 303 P_____O_PPO_P_ SH051970 -13.5250 163.147 15 -1 -13.5000 163.100 1004 -12.8980 163.036 30 997 -13.5130 163.053 TC 20 1004 -13.5000 163.100 1 15 -13.4088 163.331 TC 20 1004 6 203
1970003S16165 1970 2 SP MM ADA 1970-01-13 12:00:00 TS -13.4930 163.088 30 997 wellington main 314 314 O_____P_OOP_O_ jtwc_sh SH051970 -13.6000 163.100 15 -1 -13.5755 163.059 1004 -13.0000 163.000 30 997 -13.6000 163.000 TC 20 1004 -13.5755 163.059 1 14 -13.5000 163.300 TC 20 1004 5 214
1970003S16165 1970 2 SP MM ADA 1970-01-13 15:00:00 TS -13.7123 162.922 main 331 331 P_____P_PPP_P_ SH051970 -13.8075 162.915 12 -1 -13.7849 162.914 1004 -13.2686 162.822 30 997 -13.8175 162.859 TC 20 1004 -13.7849 162.914 1 13 -13.7150 163.115 TC 20 1004 6 220
1970003S16165 1970 2 SP MM ADA 1970-01-13 18:00:00 TS -13.9135 162.722 main 349 349 O_____P_PPP_O_ jtwc_sh SH051970 -14.0000 162.700 10 -1 -13.9785 162.742 1004 -13.5227 162.575 30 997 -14.0149 162.695 TC 20 1004 -13.9785 162.742 1 12 -13.9000 162.900 TC 20 1004 6 224
1970003S16165 1970 2 SP MM ADA 1970-01-13 21:00:00 TS -14.1154 162.523 main 370 370 P_____P_PPP_P_ SH051970 -14.2000 162.507 10 -1 -14.1688 162.544 1004 -13.7654 162.291 30 997 -14.2049 162.509 TC 20 1004 -14.1688 162.544 1 10 -14.0999 162.757 TC 20 1004 6 225
1970003S16165 1970 2 SP MM ADA 1970-01-13 23:00:00 TS -14.2509 162.382 main 392 391 P_____O_PPO_P_ SH051970 -14.3333 162.372 10 -1 -14.3000 162.400 1004 -13.9225 162.096 30 997 -14.3336 162.372 TC 20 1004 -14.3000 162.400 1 10 -14.2333 162.659 TC 20 1004 6 225
1970003S16165 1970 2 SP MM ADA 1970-01-14 00:00:00 TS -14.3212 162.308 30 997 wellington main 391 391 O_____P_OOP_O_ jtwc_sh SH051970 -14.4000 162.300 10 -1 -14.3741 162.329 1004 -14.0000 162.000 30 997 -14.4000 162.300 TC 20 1004 -14.3741 162.329 1 10 -14.3000 162.600 TC 20 1004 6 226
1970003S16165 1970 2 SP MM ADA 1970-01-14 03:00:00 TS -14.5321 162.079 main 414 414 P_____P_PPP_P_ SH051970 -14.5925 162.057 10 -1 -14.6029 162.101 1004 -14.2155 161.790 30 997 -14.6259 162.084 TC 20 1004 -14.6029 162.101 1 10 -14.4925 162.365 TC 20 1004 6 227
1970003S16165 1970 2 SP MM ADA 1970-01-14 06:00:00 TS -14.7504 161.832 main 447 447 O_____P_PPP_O_ jtwc_sh SH051970 -14.8000 161.800 10 -1 -14.8342 161.852 1004 -14.4268 161.574 30 997 -14.8574 161.845 TC 20 1004 -14.8342 161.852 1 10 -14.7000 162.100 TC 20 1004 7 227
1970003S16165 1970 2 SP MM ADA 1970-01-14 09:00:00 TS -14.9893 161.574 main 470 470 P_____P_PPP_P_ SH051970 -15.0575 161.543 10 -1 -15.0587 161.586 1004 -14.6497 161.321 30 997 -15.0852 161.584 TC 20 1004 -15.0587 161.586 1 10 -14.9574 161.858 TC 20 1004 7 227
1970003S16165 1970 2 SP MM ADA 1970-01-14 11:00:00 TS -15.1456 161.394 main 483 483 P_____O_PPO_P_ SH051970 -15.2255 161.378 10 -1 -15.2000 161.400 1004 -14.8126 161.116 30 997 -15.2304 161.397 TC 20 1004 -15.2000 161.400 1 10 -15.1254 161.689 TC 20 1004 7 229
1970003S16165 1970 2 SP MM ADA 1970-01-14 12:00:00 TS -15.2164 161.305 30 997 wellington main 495 495 O_____P_OOP_O_ jtwc_sh SH051970 -15.3000 161.300 10 -1 -15.2575 161.319 1004 -14.9000 161.000 30 997 -15.3000 161.300 TC 20 1004 -15.2575 161.319 1 10 -15.2000 161.600 TC 20 1004 6 234
1970003S16165 1970 2 SP MM ADA 1970-01-14 15:00:00 TS -15.3950 161.044 main 522 522 P_____P_PPP_P_ SH051970 -15.4573 161.130 10 -1 -15.4159 161.069 1004 -15.1966 160.572 32 995 -15.4646 161.032 TC 20 1004 -15.4159 161.069 1 11 -15.3575 161.307 TC 20 1004 6 237
1970003S16165 1970 2 SP MM ADA 1970-01-14 18:00:00 TS -15.5694 160.742 main 550 550 O_____P_PPP_O_ jtwc_sh SH051970 -15.6000 160.900 10 -1 -15.5729 160.792 1004 -15.5204 160.075 35 993 -15.6193 160.739 TC 20 1004 -15.5729 160.792 1 12 -15.5000 161.000 TC 20 1004 7 240
1970003S16165 1970 2 SP MM ADA 1970-01-14 21:00:00 TS -15.7676 160.372 main 579 579 P_____P_PPP_P_ SH051970 -15.7700 160.502 12 -1 -15.7538 160.462 1004 -15.8590 159.541 37 991 -15.7894 160.401 TC 20 1004 -15.7538 160.462 1 14 -15.6773 160.737 TC 20 1004 9 241
1970003S16165 1970 2 SP MM ADA 1970-01-14 23:00:00 TS -15.9224 160.085 main 599 599 P_____O_PPO_P_ SH051970 -15.9136 160.174 14 -1 -15.9000 160.200 1004 -16.0868 159.179 39 990 -15.9237 160.142 TC 20 1004 -15.9000 160.200 1 15 -15.8191 160.528 TC 20 1004 10 240
1970003S16165 1970 2 SP EA ADA 1970-01-15 00:00:00 TS -16.0120 159.929 main 617 617 O_____P_OOP_O_ jtwc_sh SH051970 -16.0000 160.000 15 -1 -15.9920 160.050 1004 -16.2000 159.000 40 990 -16.0000 160.000 TC 20 1004 -15.9920 160.050 1 16 -15.9000 160.400 TC 20 1004 11 238
1970003S16165 1970 2 SP EA ADA 1970-01-15 03:00:00 TS -16.3262 159.420 main 660 652 P_____P_PPP_P_ SH051970 -16.3350 159.465 20 -1 -16.3026 159.546 1004 -16.5365 158.516 40 990 -16.2943 159.515 TC 20 1004 -16.3026 159.546 1 19 -16.1776 159.887 TC 20 1004 12 237
1970003S16165 1970 2 SP EA ADA 1970-01-15 06:00:00 TS -16.6693 158.866 main 671 671 O_____P_PPP_O_ jtwc_sh SH051970 -16.7000 158.900 25 -1 -16.6429 158.984 1004 -16.8715 158.029 40 990 -16.6279 158.968 TC 20 1004 -16.6429 158.984 1 23 -16.5000 159.300 TC 20 1004 13 238
1970003S16165 1970 2 SP EA ADA 1970-01-15 09:00:00 TS -17.0036 158.307 main 704 704 P_____P_PPP_P_ SH051970 -17.0148 158.350 27 -1 -16.9849 158.393 1004 -17.1958 157.528 40 990 -16.9724 158.387 TC 20 1004 -16.9849 158.393 1 27 -16.8574 158.750 TC 20 1004 13 239
1970003S16165 1970 2 SP EA ADA 1970-01-15 11:00:00 TS -17.2149 157.932 1004 bom main 729 729 P_____O_PPO_P_ SH051970 -17.2082 157.983 29 -1 -17.2000 158.000 1004 -17.4014 157.180 40 990 -17.1944 157.995 TC 20 1004 -17.2000 158.000 1 30 -17.0920 158.383 TC 20 1004 12 240
1970003S16165 1970 2 SP EA ADA 1970-01-15 12:00:00 TS -17.3133 157.748 main 743 737 O_____P_OOP_O_ jtwc_sh SH051970 -17.3000 157.800 30 -1 -17.2959 157.816 1004 -17.5000 157.000 40 990 -17.3000 157.800 TC 20 1004 -17.2969 157.818 1 29 -17.2000 158.200 TC 20 1004 12 242
1970003S16165 1970 2 SP EA ADA 1970-01-15 15:00:00 TS -17.5833 157.196 main 776 776 P_____P_PPP_P_ SH051970 -17.5573 157.250 27 -1 -17.5685 157.262 1004 -17.7794 156.436 40 990 -17.5832 157.254 TC 20 1004 -17.5727 157.272 1 26 -17.4648 157.650 TC 20 1004 12 244
1970003S16165 1970 2 SP EA ADA 1970-01-15 18:00:00 TS -17.8325 156.641 main 801 739 O_____P_PPP_O_ jtwc_sh SH051970 -17.8000 156.700 25 -1 -17.8202 156.710 1004 -18.0370 155.844 40 990 -17.8442 156.707 TC 20 1004 -17.8263 156.724 1 24 -17.7000 157.100 TC 20 1004 12 245
1970003S16165 1970 2 SP EA ADA 1970-01-15 21:00:00 TS -18.0797 156.082 main 739 701 P_____P_PPP_P_ SH051970 -18.0648 156.150 22 -1 -18.0535 156.162 1004 -18.2761 155.230 40 990 -18.0832 156.157 TC 20 1004 -18.0579 156.172 1 21 -17.9573 156.550 TC 20 1004 12 246
1970003S16165 1970 2 SP EA ADA 1970-01-15 23:00:00 TS -18.2336 155.707 1004 bom main 701 686 P_____O_PPO_P_ SH051970 -18.2280 155.783 20 -1 -18.2000 155.800 1004 -18.4269 154.811 40 990 -18.2302 155.787 TC 20 1004 -18.2000 155.800 1 20 -18.1223 156.183 TC 20 1004 12 247
1970003S16165 1970 2 SP EA ADA 1970-01-16 00:00:00 TS -18.3069 155.521 main 678 625 O_____P_OOP_O_ jtwc_sh SH051970 -18.3000 155.600 20 -1 -18.2800 155.635 1003 -18.5000 154.600 40 990 -18.3000 155.600 TC 20 1004 -18.2682 155.614 1 20 -18.2000 156.000 TC 20 1004 11 249
1970003S16165 1970 2 SP EA ADA 1970-01-16 03:00:00 TS -18.5018 154.964 main 625 565 P_____P_PPP_P_ SH051970 -18.4573 155.057 22 -1 -18.5082 155.142 1000 -18.7184 153.948 43 987 -18.5001 155.036 TC 26 1001 -18.4563 155.051 1 23 -18.4148 155.457 TC 27 1001 11 251
1970003S16165 1970 2 SP EA ADA 1970-01-16 06:00:00 TS -18.6758 154.391 main 565 529 O_____P_PPP_O_ jtwc_sh SH051970 -18.6000 154.500 25 -1 -18.7016 154.608 997 -18.9225 153.285 47 985 -18.6793 154.464 TC 32 998 -18.6273 154.480 1 25 -18.6000 154.900 TC 35 998 12 252
1970003S16165 1970 2 SP EA ADA 1970-01-16 08:00:00 TS -18.7918 153.994 996 bom main 529 515 P_____O_PPP_P_ SH051970 -18.7307 154.113 26 -1 -18.8000 154.200 996 -19.0521 152.846 50 983 -18.7902 154.079 TC 36 995 -18.7365 154.093 1 27 -18.7023 154.513 TC 38 995 12 253
1970003S16165 1970 2 SP EA ADA 1970-01-16 09:00:00 TS -18.8471 153.790 main 515 481 P_____P_PPP_P_ SH051970 -18.7998 153.915 27 -1 -18.8307 153.973 994 -19.1153 152.629 51 982 -18.8438 153.886 TC 38 995 -18.7907 153.897 1 28 -18.7498 154.315 TC 40 995 12 254
1970003S16165 1970 2 SP EA ADA 1970-01-16 11:00:00 TS -18.9581 153.375 992 bom main 472 460 P_____O_PPO_P_ SH051970 -18.9363 153.508 29 -1 -18.9000 153.500 992 -19.2391 152.206 53 980 -18.9485 153.496 TC 42 992 -18.9000 153.500 1 30 -18.8468 153.908 TC 43 992 12 254
1970003S16165 1970 2 SP EA ADA 1970-01-16 12:00:00 TS -19.0175 153.165 main 460 428 O_____P_OOP_O_ jtwc_sh SH051970 -19.0000 153.300 30 -1 -18.9589 153.264 989 -19.3000 152.000 55 980 -19.0000 153.300 TC 45 992 -18.9633 153.289 1 30 -18.9000 153.700 TC 45 992 13 253
1970003S16165 1970 2 SP EA ADA 1970-01-16 14:00:00 TS -19.1398 152.732 985 bom main 423 408 P_____O_PPP_P_ SH051970 -19.1024 152.869 31 -1 -19.1000 152.800 985 -19.4380 151.574 56 978 -19.1136 152.887 TC 49 988 -19.0915 152.857 1 32 -19.0308 153.269 TC 50 987 13 253
1970003S16165 1970 2 SP EA ADA 1970-01-16 15:00:00 TS -19.1994 152.515 main 403 336 P_____P_PPP_P_ SH051970 -19.1499 152.650 32 -1 -19.1647 152.575 983 -19.5065 151.365 57 977 -19.1695 152.679 TC 51 987 -19.1555 152.639 1 33 -19.0999 153.050 TC 52 986 13 254
1970003S16165 1970 2 SP EA ADA 1970-01-16 18:00:00 TS -19.3746 151.878 main 336 274 O_____P_PPP_O_ jtwc_sh SH051970 -19.3000 152.000 35 0 -19.3482 151.936 979 -19.7027 150.766 60 975 -19.3303 152.055 TC 57 982 -19.3407 151.992 1 35 -19.3000 152.400 TC 60 980 12 253
1970003S16165 1970 2 SP EA ADA 1970-01-16 21:00:00 TS -19.5523 151.276 main 270 231 P_____P_PPP_P_ SH051970 -19.5149 151.370 37 0 -19.5093 151.354 974 -19.8724 150.234 62 972 -19.4758 151.454 TC 63 977 -19.5065 151.377 1 38 -19.4724 151.770 TC 65 976 12 253
1970003S16165 1970 2 SP EA ADA 1970-01-16 23:00:00 TS -19.6549 150.907 972 bom main 227 217 P_____O_PPO_P_ SH051970 -19.6478 150.980 39 0 -19.6000 151.000 972 -19.9631 149.932 64 970 -19.5614 151.078 TC 67 973 -19.6000 151.000 2 40 -19.5640 151.380 TC 68 973 11 254
1970003S16165 1970 2 SP EA ADA 1970-01-17 00:00:00 TS -19.6946 150.735 main 208 165 O_____P_OOP_O_ jtwc_sh SH051970 -19.7000 150.800 40 0 -19.6320 150.823 971 -20.0000 149.800 65 970 -19.6000 150.900 TC 70 972 -19.6305 150.822 2 40 -19.6000 151.200 TC 70 972 9 260
1970003S16165 1970 2 SP EA ADA 1970-01-17 03:00:00 TS -19.7582 150.265 main 165 127 P_____P_PPP_P_ SH051970 -19.7648 150.312 40 0 -19.7006 150.331 969 -20.0549 149.486 66 968 -19.6674 150.366 TC 72 969 -19.6972 150.329 2 40 -19.6573 150.720 TC 75 969 8 263
1970003S16165 1970 2 SP EA ADA 1970-01-17 06:00:00 TS -19.7994 149.865 main 127 85 O_____P_PPP_O_ jtwc_sh SH051970 -19.8000 149.900 40 0 -19.7540 149.897 966 -20.0714 149.272 67 967 -19.7190 149.889 TC 75 967 -19.7515 149.896 2 40 -19.7000 150.300 TC 80 967 7 261
1970003S16165 1970 2 SP EA ADA 1970-01-17 09:00:00 TS -19.8691 149.504 main 85 68 P_____P_PPP_P_ SH051970 -19.8925 149.505 47 0 -19.8257 149.520 964 -20.0772 149.121 68 966 -19.7861 149.493 TC 77 964 -19.8249 149.520 2 40 -19.7850 149.863 TC 82 965 7 256
1970003S16165 1970 2 SP EA ADA 1970-01-17 11:00:00 TS -19.9329 149.301 963 bom main 68 53 P_____O_PPO_P_ SH051970 -19.9640 149.289 52 0 -19.9000 149.300 963 -20.0888 149.039 69 965 -19.8549 149.285 TC 79 962 -19.9000 149.300 2 40 -19.8584 149.608 TC 84 963 6 250
1970003S16165 1970 2 SP EA ADA 1970-01-17 12:00:00 TS -19.9711 149.212 main 53 45 O_____P_OOP_O_ jtwc_sh SH051970 -20.0000 149.200 55 0 -19.9490 149.189 962 -20.1000 149.000 70 965 -19.9000 149.200 TC 80 962 -19.9488 149.194 2 55 -19.9000 149.500 TC 85 963 5 243
1970003S16165 1970 2 SP EA ADA 1970-01-17 13:00:00 TS -20.0125 149.132 962 bom main 45 30 P_____O_PPO_P_ SH051970 -20.0306 149.124 57 0 -20.0000 149.100 962 -20.1220 148.942 69 965 -19.9603 149.126 TC 80 962 -20.0000 149.100 3 70 -19.9442 149.405 TC 85 962 5 236
1970003S16165 1970 2 SP EA ADA 1970-01-17 15:00:00 TS -20.0996 149.011 962 bom main 30 15 P_____O_PPP_P_ SH051970 -20.0924 149.012 62 0 -20.1000 149.000 962 4 -20.1743 148.833 68 966 -20.0957 149.015 TC 80 962 -20.0999 148.948 3 70 -20.0424 149.255 TC 85 962 4 228
1970003S16165 1970 2 SP EA ADA 1970-01-17 17:00:00 TS -20.1914 148.918 962 bom main 15 15 P_____O_PPP_P_ SH051970 -20.1609 148.934 67 1 -20.2000 148.900 962 -20.2361 148.735 67 967 -20.2349 148.935 TC 80 962 -20.1999 148.845 3 70 -20.1473 149.145 TC 85 962 4 222
1970003S16165 1970 2 SP EA ADA 1970-01-17 18:00:00 TS -20.2385 148.879 main 15 0 O_____P_POP_O_ jtwc_sh SH051970 -20.2000 148.900 70 1 -20.2500 148.858 962 -20.2699 148.690 67 967 -20.3000 148.900 TC 80 962 -20.2498 148.807 3 70 -20.2000 149.100 TC 85 962 4 216
1970003S16165 1970 2 SP EA ADA 1970-01-17 21:00:00 TS -20.3818 148.774 main 0 0 P_____P_PPP_P_ SH051970 -20.3425 148.785 70 1 -20.4000 148.758 963 -20.3806 148.577 66 968 -20.4575 148.792 TC 80 963 -20.3999 148.733 3 70 -20.3500 148.985 TC 82 963 3 212
1970003S16165 1970 2 SP EA ADA 1970-01-17 23:00:00 TS -20.4796 148.719 964 bom main 0 0 P_____O_PPO_P_ SH051970 -20.4474 148.725 70 1 -20.5000 148.700 964 -20.4596 148.521 65 969 -20.5526 148.731 TC 80 963 -20.5000 148.700 4 70 -20.4500 148.928 TC 80 963 3 209
1970003S16165 1970 2 SP EA ADA 1970-01-18 00:00:00 TS -20.5281 148.692 main 0 0 O_____P_OOP_O_ jtwc_sh SH051970 -20.5000 148.700 70 1 -20.5464 148.660 966 -20.5000 148.500 65 970 -20.6000 148.700 TC 80 964 -20.5500 148.684 4 70 -20.5000 148.900 TC 80 964 3 207
1970003S16165 1970 2 SP EA ADA 1970-01-18 03:00:00 TS -20.6734 148.613 main 0 0 P_____P_PPP_P_ SH051970 -20.6525 148.643 70 1 -20.6892 148.545 975 -20.6299 148.452 62 972 -20.7475 148.603 TC 67 973 -20.7001 148.636 4 70 -20.6500 148.785 TC 67 973 3 205
1970003S16165 1970 2 SP EA ADA 1970-01-18 05:00:00 TS -20.7720 148.572 982 bom main 0 0 P_____O_PPP_P_ SH051970 -20.7511 148.613 70 1 -20.8000 148.500 982 -20.7201 148.440 60 974 -20.8489 148.534 TC 59 979 -20.8001 148.602 4 70 -20.7500 148.722 TC 59 979 3 199
1970003S16165 1970 2 SP EA ADA 1970-01-18 06:00:00 TS -20.8232 148.557 main 0 0 O_____P_POP_O_ jtwc_sh SH051970 -20.8000 148.600 70 1 -20.8702 148.495 986 -20.7649 148.440 60 975 -20.9000 148.500 TC 55 982 -20.8501 148.586 4 70 -20.8000 148.700 TC 55 982 3 189
1970003S16165 1970 2 SP EA ADA 1970-01-18 08:00:00 TS -20.9183 148.548 996 bom main 0 0 ______O_P_P_P_ SH051970 -1 -21.0000 148.500 996 -20.8515 148.449 58 976 TC -20.9501 148.552 4 70 -20.9000 148.680 TC 51 987 3 0
1970003S16165 1970 2 SP EA ADA 1970-01-18 09:00:00 TS -20.9552 148.540 main 0 0 ______P_P_P_P_ SH051970 -1 -21.0438 148.502 996 -20.8924 148.458 57 977 TC -21.0000 148.534 4 70 -20.9500 148.680 TC 50 990 2 191
1970003S16165 1970 2 SP EA ADA 1970-01-18 11:00:00 TS -21.0211 148.540 998 bom main 0 0 ______O_P_O_P_ SH051970 -1 -21.1000 148.500 998 -20.9671 148.484 55 979 TC -21.1000 148.500 4 70 -21.0500 148.691 TC 46 995 1 199
1970003S16165 1970 2 SP EA ADA 1970-01-18 12:00:00 TS -21.0200 148.540 main 0 0 ________O___O_ -1 -21.0000 148.500 55 980 4 -21.1000 148.700 TC 45 998 1 0
1970003S16165 1970 2 SP EA ADA 1970-01-18 15:00:00 NR -21.0785 148.560 main 0 0 ________P_____ -1 -21.0785 148.560 51 982 4 TC 1 142
1970003S16165 1970 2 SP EA ADA 1970-01-18 18:00:00 NR -21.1326 148.633 main 0 0 ________P_____ -1 -21.1326 148.633 47 985 4 2 123
1970003S16165 1970 2 SP EA ADA 1970-01-18 21:00:00 NR -21.1704 148.714 main 0 0 ________P_____ -1 -21.1704 148.714 43 987 4 2 113
1970003S16165 1970 2 SP EA ADA 1970-01-19 00:00:00 NR -21.2000 148.800 main 0 ________O_____ -1 -21.2000 148.800 40 990 2 110

デジタル台風データ・検索

IBTrACS Databaseについて

本データベースは、米国NOAAが公開する1842年以降の世界の熱帯低気圧のベストトラックデータアーカイブInternational Best Track Archive for Climate Stewardship (IBTrACS)を、ウェブで閲覧しやすい形式に変換したものです。

最終更新日:2021-10-08